logo
Rechercher aéroport 
image banner adimage banner adimage banner ad
image banner ad

LKHART - Slezska Harta

Situé à Bruntál, Czech Republic

ICAO - , IATA -

Données fournies par Airmate  

Information générale

Coordonnées: N49°54'32" E17°32'9"
Élévation : 1677 feet MSL.
 
Voir autres Aéroports à Moravian-Silesian Region

Données opérationnelles

Special qualification required
Heure actuelle UTC:
Heure actuelle locale:
Météo à : LKMT - Ostrava/Mosnov ( 48 km )
METAR: LKMT 282030Z 02005KT 9999 FEW035 15/12 Q1018 NOSIG
TAF: TAF LKMT 281700Z 2818/2918 02006KT CAVOK TEMPO 2818/2820 4000 TSRA SCT040CB BECMG 2821/2823 9999 BKN017 TEMPO 2823/2908 BKN010 BECMG 2909/2911 BKN030 PROB40 TEMPO 2912/2918 4000 TSRA SCT030CB
Voir NOTAMs / SUP AIP / TFR affectant cet aéroport [VIEW]
Fréquences de communication: [VIEW]

Pistes:

Identifiant RWYQFULongueur (ft)Largeur (ft)SurfaceLDA (ft)
12124°147649GRASS1476
30304°147649GRASS1476

Coordonnées de l'aéroport

Adresse: Bruntál Czech Republic

Vue satellite de LKHART